Almagrundet, Sweden

11:37 AM CEST on August 02, 2014 (GMT +0200)
ITROUVIL2 Elev 10 ft | 59.28 °N, 18.93 °E | Change Station

Current weather conditions updated 2 minutes ago

Clear
Clear
64.0 °F
Feels Like 64.0 °F
N
8.0
Wind Variable Wind from SSE
Gusts 10.0 mph

Today is forecast to be Warmer than yesterday. Scattered thunderstorms tonight.

Today
High -- | Low -- °F
--% Chance of Precip.
Yesterday
High -- | Low -- °F
Precip. -- in
4:31 AM 9:06 PM
Waxing Crescent, 34% visible
Pressure 30.04 in
Visibility -9999.0 miles
Clouds
Dew Point 64 °F
Humidity 100%
Rainfall 0.00 in
Snow Depth Not available.
UV Not available.
Pollen Not available.
Air Quality Not available.
Flu Activity Not available.
METAR ESSB 020920Z 09004KT 040V130 CAVOK 26/14 Q1017

More Conditions Fewer Conditions

Pressure 30.04 in
Visibility -9999.0 miles
Clouds
Dew Point 64 °F
Humidity 100%
Rainfall 0.00 in
Snow Depth Not available.
UV Not available.
Pollen Not available.
Air Quality Not available.
Flu Activity Not available.
METAR ESSB 020920Z 09004KT 040V130 CAVOK 26/14 Q1017

More Conditions Fewer Conditions

10-Day Weather Forecast

Almanac

Astronomy

Aug. 02, 2014 Rise Set
Actual Time 4:31 AM CEST 9:06 PM CEST
Civil Twilight 3:34 AM CEST 10:02 PM CEST
Nautical Twilight 1:51 AM CEST 11:41 PM CEST
Astronomical Twilight Sun does not rise Sun does not rise
Moon 12:16 PM CEST 10:29 PM CEST
Length of Visible Light 18h 27m
Length of Day
16h 34m
Tomorrow will be 4m 38s shorter.
Waxing Crescent, 34% of the Moon is Illuminated
Today
Waxing Crescent
Aug 3
First Quarter
Aug 10
Full
Aug 17
Last Quarter
Aug 25
New

Yesterday's Extremes

Country Highs Country Lows

Community

WunderPhotos

Upload Photos

1,739,850 photos uploaded!

Nearby

Snow Depth

Not available.

Earthquake Activity

City Distance Mag. Time & Date
No recent earthquake activity has been reported nearby.
Minimum magnitude displayed is 2.5.

Coastal Water Temperatures

Place Temperature
No Stations Reporting

Nearby Weather Stations

Station Location Temp. Heat Index Dew Point Humidity Wind Precip. Elev Updated Type
Sandhamn 64.0 °F - 64 °F 100% SSE  at  8.0 mph 0.00 in / hr 10 ft 11:34 AM CEST Normal
Saltaro, Saltaro 80.2 °F 81 °F 59 °F 49% South  at  4.5 mph 0.00 in / hr 46 ft 11:36 AM CEST Normal
Stockholm Archipelago, Abborrkroken 76.4 °F 78 °F 62 °F 60% South  at  4.4 mph 0.00 in / hr 105 ft 11:37 AM CEST Rapid Fire
L. Ravson, Stockholm Archipelago 76.7 °F 79 °F 63 °F 62% SSW  at  0.0 mph - / hr 66 ft 11:24 AM CEST Normal

Show More Stations Show Fewer Stations